メインページ
METAR-TAF:

METAR-TAF

空港 :

Sanandaj, イラン

緯度: 35-20N, 経度: 047-00E, 海抜: 1373m

現時点の気象観測

当レポートは1時間11分前の05:00(UTC)に作成
の風 6kt
気温 10°C
湿度 66%
気圧 1020 hPa
視程10km以上
高度3000ftの雲はほとんどない, 塔状積雲.
高度3500ftの雲は散在している

METAR: OICS 040500Z 01006KT 9999 FEW030TCU SCT035 10/04 Q1020 A3012 RESHRA

時間: 10:41 (06:11 UTC)


TAF: 見つかりません

4,000以上の空港の気象観測と天気予報(METAR報とTAF報)

利用可能な観測所は地図上に黄色い丸と赤い丸で示す。

丸の上にカーソルを重ねると観測所名を参照できる。

次にクリックすると気象観測と天気予報を参照できる。

マップの切り替え:黒色「×」印の緑ボタンをクリックして拡大、「-」印の緑ボタンをクリックして縮小、緑色の三角印をクリックして隣りの地図に切り替え


METAR-TAF: